createdAt,value
2023-02-28T00:02:11.860Z,2.80
2023-02-28T00:05:02.251Z,3.65
2023-02-28T00:07:47.799Z,2.80
2023-02-28T00:10:33.585Z,3.22
2023-02-28T00:13:18.772Z,2.70
2023-02-28T00:16:07.046Z,3.20
2023-02-28T00:18:53.397Z,2.90
2023-02-28T00:21:49.415Z,2.63
2023-02-28T00:24:39.947Z,2.88
2023-02-28T00:27:25.611Z,2.35
2023-02-28T00:30:17.262Z,2.85
2023-02-28T00:33:02.639Z,2.78
2023-02-28T00:35:48.418Z,2.72
2023-02-28T00:38:34.431Z,2.75
2023-02-28T00:41:22.531Z,2.95
2023-02-28T00:44:08.115Z,2.72
2023-02-28T00:46:55.197Z,3.08
2023-02-28T00:49:45.013Z,2.53
2023-02-28T00:52:30.536Z,2.70
2023-02-28T00:55:17.643Z,2.40
2023-02-28T00:58:02.965Z,2.65
2023-02-28T01:00:51.507Z,2.67
2023-02-28T01:03:36.870Z,2.70
2023-02-28T01:06:22.684Z,2.50
2023-02-28T01:09:08.484Z,2.30
2023-02-28T01:11:53.912Z,2.92
2023-02-28T01:14:41.872Z,2.75
2023-02-28T01:17:30.480Z,2.80
2023-02-28T01:20:19.989Z,2.60
2023-02-28T01:23:06.037Z,2.65
2023-02-28T01:25:53.738Z,3.17
2023-02-28T01:28:39.255Z,2.72
2023-02-28T01:31:25.223Z,2.88
2023-02-28T01:34:10.331Z,2.70
2023-02-28T01:36:56.084Z,2.42
2023-02-28T01:39:41.590Z,2.53
2023-02-28T01:42:27.322Z,3.03
2023-02-28T01:45:21.958Z,3.28
2023-02-28T01:48:10.055Z,2.22
2023-02-28T01:51:01.092Z,2.80
2023-02-28T01:53:50.164Z,2.40
2023-02-28T01:56:37.539Z,3.00
2023-02-28T01:59:41.473Z,3.10
2023-02-28T02:02:28.346Z,2.75
2023-02-28T02:05:19.981Z,2.63
2023-02-28T02:08:19.166Z,3.08
2023-02-28T02:11:06.970Z,2.80
2023-02-28T02:14:25.037Z,3.28
2023-02-28T02:17:25.470Z,3.00
2023-02-28T02:20:20.444Z,3.15
2023-02-28T02:23:32.713Z,2.90
2023-02-28T02:27:04.261Z,3.05
2023-02-28T02:30:02.161Z,2.90
2023-02-28T02:33:17.578Z,2.60
2023-02-28T02:36:26.638Z,3.45
2023-02-28T02:39:39.468Z,3.33
2023-02-28T02:42:32.810Z,3.00
2023-02-28T02:45:20.420Z,2.80
2023-02-28T02:48:10.077Z,2.97
2023-02-28T02:51:12.746Z,3.22
2023-02-28T02:54:09.628Z,3.10
2023-02-28T02:56:59.473Z,3.13
2023-02-28T02:59:45.227Z,3.67
2023-02-28T03:02:36.163Z,3.40
2023-02-28T03:05:29.687Z,3.47
2023-02-28T03:08:15.588Z,3.10
2023-02-28T03:11:04.520Z,3.17
2023-02-28T03:14:04.957Z,3.47
2023-02-28T03:17:09.425Z,3.33
2023-02-28T03:20:31.717Z,3.35
2023-02-28T03:23:38.902Z,2.95
2023-02-28T03:26:33.902Z,3.50
2023-02-28T03:29:26.398Z,3.78
2023-02-28T03:32:48.636Z,3.75
2023-02-28T03:35:38.319Z,3.50
2023-02-28T03:38:43.993Z,3.20
2023-02-28T03:41:37.772Z,3.63
2023-02-28T03:44:28.650Z,3.15
2023-02-28T03:47:25.572Z,3.85
2023-02-28T03:50:33.461Z,3.47
2023-02-28T03:53:33.774Z,3.40
2023-02-28T03:56:34.800Z,3.85
2023-02-28T03:59:30.079Z,3.90
2023-02-28T04:05:02.005Z,4.03
2023-02-28T04:07:49.230Z,3.53
2023-02-28T04:10:39.717Z,4.03
2023-02-28T04:13:29.446Z,4.60
2023-02-28T04:16:32.171Z,4.00
2023-02-28T04:19:19.921Z,4.43
2023-02-28T04:22:05.389Z,4.22
2023-02-28T04:24:56.396Z,3.90
2023-02-28T04:27:48.509Z,4.32
2023-02-28T04:30:35.536Z,3.92
2023-02-28T04:33:23.674Z,3.92
2023-02-28T04:36:10.025Z,4.18
2023-02-28T04:38:55.882Z,4.75
2023-02-28T04:41:41.264Z,4.75
2023-02-28T04:44:29.600Z,4.43
2023-02-28T04:47:15.277Z,4.72
2023-02-28T04:50:00.549Z,4.70
2023-02-28T04:52:46.314Z,4.93
2023-02-28T04:55:31.538Z,5.07
2023-02-28T04:58:17.259Z,4.95
2023-02-28T05:01:05.781Z,5.20
2023-02-28T05:03:53.066Z,5.50
2023-02-28T05:06:38.606Z,5.15
2023-02-28T05:09:24.268Z,5.03
2023-02-28T05:12:10.488Z,5.40
2023-02-28T05:14:56.141Z,5.28
2023-02-28T05:17:41.576Z,5.35
2023-02-28T05:20:27.687Z,5.80
2023-02-28T05:23:14.536Z,5.47
2023-02-28T05:26:00.343Z,5.03
2023-02-28T05:28:45.884Z,5.82
2023-02-28T05:31:31.612Z,6.10
2023-02-28T05:34:17.414Z,5.75
2023-02-28T05:37:02.693Z,5.45
2023-02-28T05:39:48.065Z,5.90
2023-02-28T05:42:34.183Z,6.70
2023-02-28T05:45:19.868Z,5.38
2023-02-28T05:48:05.396Z,6.03
2023-02-28T05:50:50.682Z,5.82
2023-02-28T05:53:39.298Z,5.75
2023-02-28T05:56:24.732Z,5.55
2023-02-28T05:59:10.996Z,5.55
2023-02-28T06:01:56.791Z,4.60
2023-02-28T06:04:42.837Z,3.83
2023-02-28T06:07:28.427Z,3.40
2023-02-28T06:10:14.753Z,3.78
2023-02-28T06:13:05.007Z,3.55
2023-02-28T06:15:50.132Z,3.20
2023-02-28T06:18:35.565Z,3.13
2023-02-28T06:21:23.397Z,3.85
2023-02-28T06:24:12.030Z,3.53
2023-02-28T06:26:59.788Z,3.20
2023-02-28T06:29:45.004Z,3.83
2023-02-28T06:32:33.383Z,3.63
2023-02-28T06:35:18.836Z,3.85
2023-02-28T06:38:05.680Z,3.80
2023-02-28T06:40:55.740Z,4.00
2023-02-28T06:43:42.944Z,4.28
2023-02-28T06:46:28.513Z,3.35
2023-02-28T06:49:13.878Z,4.93
2023-02-28T06:51:59.794Z,4.40
2023-02-28T06:54:45.322Z,4.47
2023-02-28T06:57:31.987Z,3.78
2023-02-28T07:00:17.725Z,4.55
2023-02-28T07:03:03.026Z,5.05
2023-02-28T07:05:58.068Z,4.38
2023-02-28T07:08:43.488Z,5.35
2023-02-28T07:11:29.908Z,4.40
2023-02-28T07:14:15.747Z,4.95
2023-02-28T07:17:01.065Z,5.50
2023-02-28T07:19:51.111Z,5.90
2023-02-28T07:22:36.560Z,5.10
2023-02-28T07:25:26.881Z,5.75
2023-02-28T07:28:13.722Z,5.90
2023-02-28T07:31:05.111Z,5.78
2023-02-28T07:33:54.512Z,5.60
2023-02-28T07:36:40.162Z,5.53
2023-02-28T07:39:27.360Z,5.72
2023-02-28T07:42:13.944Z,5.25
2023-02-28T07:44:59.926Z,5.05
2023-02-28T07:47:46.855Z,5.47
2023-02-28T07:50:32.426Z,5.75
2023-02-28T07:53:17.839Z,6.22
2023-02-28T07:56:05.135Z,5.43
2023-02-28T07:58:50.585Z,5.07
2023-02-28T08:01:39.357Z,5.30
2023-02-28T08:04:24.846Z,5.30
2023-02-28T08:07:14.042Z,4.93
2023-02-28T08:09:59.390Z,5.53
2023-02-28T08:12:44.915Z,5.15
2023-02-28T08:15:30.888Z,5.38
2023-02-28T08:18:16.441Z,5.70
2023-02-28T08:21:10.787Z,6.35
2023-02-28T08:23:57.720Z,5.57
2023-02-28T08:26:45.659Z,5.97
2023-02-28T08:29:31.251Z,6.38
2023-02-28T08:32:28.877Z,6.25
2023-02-28T08:35:15.265Z,5.65
2023-02-28T08:38:00.855Z,5.45
2023-02-28T08:40:48.952Z,6.88
2023-02-28T08:43:35.897Z,6.47
2023-02-28T08:46:24.733Z,6.25
2023-02-28T08:49:11.958Z,5.90
2023-02-28T08:51:58.112Z,6.30
2023-02-28T08:54:43.550Z,6.40
2023-02-28T08:57:30.596Z,6.80
2023-02-28T09:00:16.555Z,6.90
2023-02-28T09:03:01.861Z,7.18
2023-02-28T09:05:58.635Z,7.00
2023-02-28T09:08:44.356Z,7.28
2023-02-28T09:11:29.819Z,6.78
2023-02-28T09:14:19.750Z,6.47
2023-02-28T09:22:36.600Z,5.60
2023-02-28T09:25:25.034Z,4.75
2023-02-28T09:28:10.210Z,4.90
2023-02-28T09:30:56.136Z,5.07
2023-02-28T09:33:42.348Z,5.00
2023-02-28T09:36:43.304Z,5.65
2023-02-28T09:39:30.353Z,4.85
2023-02-28T09:42:31.901Z,4.93
2023-02-28T09:45:39.404Z,4.88
2023-02-28T09:48:32.571Z,5.32
2023-02-28T09:51:46.764Z,4.80
2023-02-28T09:54:36.264Z,5.78
2023-02-28T09:57:34.639Z,5.22
2023-02-28T10:00:21.207Z,5.70
2023-02-28T10:03:33.518Z,4.88
2023-02-28T10:06:21.916Z,5.15
2023-02-28T10:09:14.732Z,5.10
2023-02-28T10:12:06.713Z,4.53
2023-02-28T10:14:57.449Z,4.57
2023-02-28T10:17:55.635Z,4.15
2023-02-28T10:20:47.591Z,3.78
2023-02-28T10:23:37.058Z,3.70
2023-02-28T10:26:24.907Z,3.53
2023-02-28T10:29:11.250Z,3.55
2023-02-28T10:32:03.188Z,3.60
2023-02-28T10:35:19.656Z,3.35
2023-02-28T10:38:18.121Z,3.08
2023-02-28T10:41:16.083Z,2.65
2023-02-28T10:44:23.716Z,3.20
2023-02-28T10:47:17.964Z,3.13
2023-02-28T10:50:03.632Z,2.88
2023-02-28T10:52:55.496Z,3.47
2023-02-28T10:55:41.913Z,3.10
2023-02-28T10:58:30.673Z,2.67
2023-02-28T11:01:20.383Z,2.35
2023-02-28T11:04:40.388Z,2.22
2023-02-28T11:07:37.364Z,2.22
2023-02-28T11:10:35.836Z,2.30
2023-02-28T11:13:26.302Z,1.98
2023-02-28T11:16:14.150Z,1.77
2023-02-28T11:19:00.869Z,2.15
2023-02-28T11:21:55.675Z,2.30
2023-02-28T11:24:48.815Z,1.88
2023-02-28T11:27:34.839Z,2.45
2023-02-28T11:30:30.451Z,1.83
2023-02-28T11:36:31.745Z,2.10
2023-02-28T11:39:18.707Z,2.10
2023-02-28T11:43:00.329Z,1.70
2023-02-28T11:46:03.100Z,2.38
2023-02-28T11:49:02.532Z,2.00
2023-02-28T11:52:21.424Z,1.73
2023-02-28T11:55:21.020Z,1.60
2023-02-28T11:58:18.005Z,1.90
2023-02-28T12:01:39.772Z,1.50
2023-02-28T12:04:43.754Z,1.60
2023-02-28T12:07:47.456Z,1.48
2023-02-28T12:10:54.306Z,1.58
2023-02-28T12:13:57.853Z,1.20
2023-02-28T12:16:50.755Z,1.70
2023-02-28T12:20:03.163Z,1.23
2023-02-28T12:22:50.595Z,1.20
2023-02-28T12:25:49.317Z,1.35
2023-02-28T12:28:40.642Z,1.30
2023-02-28T12:31:30.867Z,1.38
2023-02-28T12:34:21.850Z,1.30
2023-02-28T12:37:29.466Z,1.23
2023-02-28T12:40:24.091Z,1.27
2023-02-28T12:43:13.681Z,1.33
2023-02-28T12:46:25.497Z,1.17
2023-02-28T12:49:17.153Z,1.30
2023-02-28T12:52:05.075Z,1.45
2023-02-28T12:54:58.636Z,1.50
2023-02-28T12:57:54.561Z,1.40
2023-02-28T13:00:57.186Z,1.30
2023-02-28T13:04:20.292Z,1.48
2023-02-28T13:07:38.063Z,1.20
2023-02-28T13:10:23.603Z,1.50
2023-02-28T13:13:20.448Z,1.20
2023-02-28T13:16:12.212Z,1.50
2023-02-28T13:19:11.577Z,1.25
2023-02-28T13:21:59.750Z,1.42
2023-02-28T13:24:52.888Z,1.50
2023-02-28T13:27:43.774Z,1.30
2023-02-28T13:30:58.779Z,1.15
2023-02-28T13:33:53.263Z,1.42
2023-02-28T13:36:38.989Z,1.60
2023-02-28T13:39:36.628Z,1.30
2023-02-28T13:42:25.733Z,1.60
2023-02-28T13:45:11.175Z,1.38
2023-02-28T13:48:03.424Z,1.27
2023-02-28T13:50:51.997Z,1.23
2023-02-28T13:54:03.190Z,1.42
2023-02-28T13:57:13.793Z,1.30
2023-02-28T14:00:24.923Z,1.48
2023-02-28T14:03:25.850Z,1.50
2023-02-28T14:06:31.286Z,1.33
2023-02-28T14:09:24.551Z,1.35
2023-02-28T14:12:52.253Z,1.55
2023-02-28T14:15:48.057Z,1.50
2023-02-28T14:18:38.284Z,1.48
2023-02-28T14:21:29.721Z,1.40
2023-02-28T14:24:51.122Z,1.23
2023-02-28T14:28:11.274Z,1.00
2023-02-28T14:31:16.042Z,1.83
2023-02-28T14:34:30.786Z,1.40
2023-02-28T14:37:31.229Z,1.60
2023-02-28T14:40:34.350Z,1.65
2023-02-28T14:43:26.033Z,1.75
2023-02-28T14:46:14.641Z,2.00
2023-02-28T14:49:00.490Z,2.00
2023-02-28T14:51:46.150Z,1.70
2023-02-28T14:54:31.938Z,2.28
2023-02-28T14:57:29.092Z,3.97
2023-02-28T15:00:26.920Z,2.03
2023-02-28T15:03:37.084Z,1.50
2023-02-28T15:06:23.928Z,1.80
2023-02-28T15:09:17.801Z,1.65
2023-02-28T15:12:03.615Z,1.27
2023-02-28T15:14:52.183Z,1.40
2023-02-28T15:17:37.970Z,1.33
2023-02-28T15:20:29.563Z,1.55
2023-02-28T15:23:17.188Z,1.40
2023-02-28T15:26:03.718Z,1.67
2023-02-28T15:28:53.839Z,1.40
2023-02-28T15:31:57.277Z,1.30
2023-02-28T15:34:45.254Z,1.58
2023-02-28T15:37:41.694Z,1.50
2023-02-28T15:40:41.666Z,1.88
2023-02-28T15:43:31.393Z,1.30
2023-02-28T15:46:18.248Z,1.83
2023-02-28T15:49:05.700Z,1.65
2023-02-28T15:51:54.568Z,2.00
2023-02-28T15:54:40.125Z,2.17
2023-02-28T15:57:28.905Z,1.55
2023-02-28T16:00:17.473Z,1.85
2023-02-28T16:03:22.931Z,2.30
2023-02-28T16:06:18.073Z,1.50
2023-02-28T16:11:55.936Z,1.88
2023-02-28T16:14:44.153Z,1.80
2023-02-28T16:17:36.749Z,1.58
2023-02-28T16:20:27.988Z,2.20
2023-02-28T16:23:13.852Z,2.30
2023-02-28T16:25:59.281Z,1.90
2023-02-28T16:28:44.839Z,2.55
2023-02-28T16:31:35.175Z,2.05
2023-02-28T16:34:22.102Z,2.25
2023-02-28T16:37:38.819Z,2.63
2023-02-28T16:40:26.947Z,2.22
2023-02-28T16:43:39.055Z,2.30
2023-02-28T16:46:34.186Z,2.40
2023-02-28T16:52:08.110Z,2.63
2023-02-28T16:54:55.354Z,2.70
2023-02-28T16:57:41.491Z,2.88
2023-02-28T17:00:28.642Z,3.33
2023-02-28T17:03:33.222Z,5.35
2023-02-28T17:06:23.025Z,5.50
2023-02-28T17:09:40.007Z,3.10
2023-02-28T17:12:26.841Z,3.30
2023-02-28T17:15:17.692Z,3.40
2023-02-28T17:18:06.718Z,3.03
2023-02-28T17:20:52.093Z,3.45
2023-02-28T17:23:37.610Z,4.47
2023-02-28T17:26:25.630Z,3.42
2023-02-28T17:29:25.692Z,3.05
2023-02-28T17:32:18.227Z,2.88
2023-02-28T17:35:04.270Z,3.10
2023-02-28T17:37:49.727Z,4.07
2023-02-28T17:40:35.370Z,3.67
2023-02-28T17:43:20.816Z,3.55
2023-02-28T17:46:07.261Z,3.25
2023-02-28T17:48:54.119Z,7.07
2023-02-28T17:51:39.776Z,5.85
2023-02-28T17:54:25.249Z,6.35
2023-02-28T17:57:16.705Z,5.13
2023-02-28T18:00:06.486Z,4.30
2023-02-28T18:02:56.966Z,4.90
2023-02-28T18:05:42.400Z,4.20
2023-02-28T18:08:28.038Z,3.72
2023-02-28T18:11:22.174Z,4.20
2023-02-28T18:14:31.136Z,4.25
2023-02-28T18:17:19.412Z,3.95
2023-02-28T18:20:05.953Z,4.65
2023-02-28T18:22:52.033Z,4.55
2023-02-28T18:25:40.834Z,4.78
2023-02-28T18:28:31.869Z,4.88
2023-02-28T18:31:20.276Z,4.65
2023-02-28T18:34:05.614Z,5.35
2023-02-28T18:36:57.683Z,4.85
2023-02-28T18:39:45.289Z,5.50
2023-02-28T18:42:30.585Z,4.53
2023-02-28T18:45:19.030Z,5.43
2023-02-28T18:48:05.682Z,5.70
2023-02-28T18:50:51.397Z,6.13
2023-02-28T18:53:37.741Z,6.60
2023-02-28T18:56:24.774Z,6.50
2023-02-28T18:59:11.151Z,6.53
2023-02-28T19:01:58.565Z,5.95
2023-02-28T19:04:45.346Z,6.05
2023-02-28T19:07:30.903Z,6.30
2023-02-28T19:10:16.943Z,6.63
2023-02-28T19:13:04.817Z,7.00
2023-02-28T19:15:51.372Z,7.50
2023-02-28T19:18:39.073Z,7.00
2023-02-28T19:21:26.199Z,6.82
2023-02-28T19:24:11.212Z,7.00
2023-02-28T19:26:56.853Z,7.20
2023-02-28T19:29:44.958Z,7.30
2023-02-28T19:32:30.703Z,7.38
2023-02-28T19:35:25.978Z,7.25
2023-02-28T19:38:11.308Z,7.28
2023-02-28T19:41:01.828Z,7.03
2023-02-28T19:43:47.927Z,7.50
2023-02-28T19:46:33.476Z,8.77
2023-02-28T19:49:18.844Z,7.93
2023-02-28T19:52:05.045Z,8.00
2023-02-28T19:55:12.328Z,8.65
2023-02-28T19:57:57.864Z,8.38
2023-02-28T20:00:43.428Z,8.00
2023-02-28T20:03:28.877Z,9.35
2023-02-28T20:06:15.071Z,8.70
2023-02-28T20:09:00.396Z,10.05
2023-02-28T20:11:46.572Z,10.68
2023-02-28T20:14:32.410Z,10.52
2023-02-28T20:17:17.701Z,12.05
2023-02-28T20:20:03.813Z,11.55
2023-02-28T20:22:49.191Z,12.95
2023-02-28T20:25:37.137Z,10.80
2023-02-28T20:28:25.805Z,10.68
2023-02-28T20:31:20.032Z,10.05
2023-02-28T20:36:51.863Z,11.30
2023-02-28T20:39:37.323Z,10.98
2023-02-28T20:42:23.196Z,10.43
2023-02-28T20:45:09.510Z,10.55
2023-02-28T20:47:57.763Z,10.52
2023-02-28T20:50:52.015Z,10.18
2023-02-28T20:53:37.635Z,11.07
2023-02-28T20:56:27.365Z,11.75
2023-02-28T20:59:12.994Z,11.57
2023-02-28T21:01:58.456Z,11.10
2023-02-28T21:04:43.702Z,11.48
2023-02-28T21:07:33.141Z,11.05
2023-02-28T21:10:19.580Z,11.70
2023-02-28T21:13:05.213Z,11.90
2023-02-28T21:15:53.112Z,13.73
2023-02-28T21:18:38.783Z,13.05
2023-02-28T21:21:25.264Z,13.30
2023-02-28T21:24:12.073Z,11.77
2023-02-28T21:26:59.631Z,13.75
2023-02-28T21:29:47.788Z,13.77
2023-02-28T21:32:34.357Z,14.52
2023-02-28T21:35:20.037Z,13.80
2023-02-28T21:38:05.745Z,13.45
2023-02-28T21:40:51.326Z,13.20
2023-02-28T21:43:37.406Z,13.82
2023-02-28T21:46:29.387Z,13.55
2023-02-28T21:49:15.458Z,13.40
2023-02-28T21:52:01.651Z,12.55
2023-02-28T21:54:50.799Z,12.27
2023-02-28T21:57:36.111Z,12.35
2023-02-28T22:00:22.001Z,13.88
2023-02-28T22:03:12.299Z,13.75
2023-02-28T22:05:57.841Z,14.00
2023-02-28T22:08:46.648Z,14.25
2023-02-28T22:11:33.885Z,14.43
2023-02-28T22:14:19.718Z,14.35
2023-02-28T22:17:05.112Z,15.32
2023-02-28T22:19:50.627Z,14.13
2023-02-28T22:22:35.781Z,15.68
2023-02-28T22:25:23.464Z,15.02
2023-02-28T22:28:08.801Z,15.02
2023-02-28T22:30:54.145Z,15.05
2023-02-28T22:33:40.229Z,16.02
2023-02-28T22:36:26.217Z,16.17
2023-02-28T22:39:11.780Z,16.77
2023-02-28T22:42:00.001Z,17.52
2023-02-28T22:44:46.780Z,16.38
2023-02-28T22:47:32.769Z,17.08
2023-02-28T22:50:18.439Z,17.13
2023-02-28T22:53:03.661Z,17.42
2023-02-28T22:55:55.749Z,16.75
2023-02-28T22:58:43.829Z,17.85
2023-02-28T23:01:32.817Z,17.42
2023-02-28T23:04:19.151Z,17.80
2023-02-28T23:07:04.611Z,19.77
2023-02-28T23:09:51.291Z,18.75
2023-02-28T23:12:37.102Z,19.27
2023-02-28T23:15:23.347Z,20.20
2023-02-28T23:18:08.582Z,20.48
2023-02-28T23:21:03.712Z,20.23
2023-02-28T23:23:49.192Z,19.33
2023-02-28T23:26:34.696Z,20.63
2023-02-28T23:29:24.431Z,21.35
2023-02-28T23:32:16.350Z,21.95
2023-02-28T23:35:02.595Z,21.05
2023-02-28T23:37:47.925Z,21.58
2023-02-28T23:40:33.448Z,18.60
2023-02-28T23:43:19.700Z,19.13
2023-02-28T23:46:05.278Z,22.67
2023-02-28T23:48:50.702Z,21.67
2023-02-28T23:51:36.268Z,23.70
2023-02-28T23:54:21.558Z,22.00
2023-02-28T23:57:07.612Z,24.10
2023-02-28T23:59:53.188Z,22.58
